Time;durP1;ratioP1;P1;durP2;ratioP2;P2;SDS_P1;SDS_P2;PMS_P1;PMS_P2;Temp;Humidity;BMP_temperature;BMP_pressure;BME280_temperature;BME280_humidity;BME280_pressure;Samples;Min_cycle;Max_cycle;Signal;HPM_P1;HPM_P2
2022/08/08 00:01:39;;;;;;;8.02;5.57;;;18.30;99.90;;;;;;5111276;28;20055;-73
2022/08/08 00:04:14;;;;;;;7.78;5.10;;;18.30;99.90;;;;;;5111163;28;20041;-74
2022/08/08 00:06:47;;;;;;;7.82;5.30;;;18.30;99.90;;;;;;5111260;28;20028;-73
2022/08/08 00:09:15;;;;;;;8.57;5.72;;;18.20;99.90;;;;;;5111514;28;20502;-73
2022/08/08 00:11:45;;;;;;;9.55;6.03;;;18.20;99.90;;;;;;5110209;28;20054;-73
2022/08/08 00:14:14;;;;;;;8.18;5.38;;;18.10;99.90;;;;;;5111411;28;20027;-73
2022/08/08 00:16:52;;;;;;;8.88;5.57;;;18.20;99.90;;;;;;5109608;28;20487;-73
2022/08/08 00:19:26;;;;;;;7.75;5.30;;;18.20;99.90;;;;;;5111114;28;20093;-73
2022/08/08 00:22:13;;;;;;;9.20;4.88;;;18.20;99.90;;;;;;5109906;28;20032;-73
2022/08/08 00:24:48;;;;;;;7.28;5.07;;;18.20;99.90;;;;;;5111180;28;20075;-74
2022/08/08 00:27:18;;;;;;;7.75;5.75;;;18.20;99.90;;;;;;5110813;28;20024;-73
2022/08/08 00:29:54;;;;;;;7.47;5.25;;;18.30;99.90;;;;;;5111037;28;20027;-74
2022/08/08 00:32:25;;;;;;;7.75;5.22;;;18.20;99.90;;;;;;5109735;28;20028;-74
2022/08/08 00:35:17;;;;;;;7.68;5.25;;;18.20;99.90;;;;;;5110876;28;20030;-75
2022/08/08 00:37:51;;;;;;;8.73;5.70;;;18.20;99.90;;;;;;5111149;28;20035;-73
2022/08/08 00:40:29;;;;;;;7.82;5.63;;;18.20;99.90;;;;;;5109536;28;20035;-73
2022/08/08 00:43:14;;;;;;;7.72;5.70;;;18.20;99.90;;;;;;5110787;28;20047;-74
2022/08/08 00:45:56;;;;;;;8.00;5.15;;;18.20;99.90;;;;;;5109456;28;20032;-73
2022/08/08 00:48:50;;;;;;;7.45;5.05;;;18.20;99.90;;;;;;5109268;28;20072;-73
2022/08/08 00:51:36;;;;;;;7.30;4.93;;;18.10;99.90;;;;;;5110960;28;20417;-73
2022/08/08 00:54:29;;;;;;;6.63;4.85;;;18.20;99.90;;;;;;5110792;28;20409;-74
2022/08/08 00:57:16;;;;;;;7.25;4.82;;;18.20;99.90;;;;;;5110864;28;20044;-73
2022/08/08 01:00:06;;;;;;;8.15;5.05;;;18.10;99.90;;;;;;5110838;28;20028;-73
2022/08/08 01:03:09;;;;;;;9.18;5.25;;;18.00;99.90;;;;;;5109467;28;20039;-72
2022/08/08 01:05:58;;;;;;;8.20;5.10;;;18.10;99.90;;;;;;5109504;28;20035;-73
2022/08/08 01:08:30;;;;;;;8.73;5.68;;;18.10;99.90;;;;;;5109275;28;20372;-74
2022/08/08 01:11:17;;;;;;;7.28;4.80;;;18.10;99.90;;;;;;5109151;28;20039;-73
2022/08/08 01:14:07;;;;;;;6.85;4.72;;;18.10;99.90;;;;;;5109277;28;20605;-73
2022/08/08 01:16:59;;;;;;;5.85;4.40;;;18.10;99.90;;;;;;5112232;28;20391;-74
2022/08/08 01:19:42;;;;;;;6.18;4.40;;;18.10;99.90;;;;;;5089742;28;20039;-73
2022/08/08 01:22:32;;;;;;;6.82;4.97;;;18.10;99.90;;;;;;5113067;28;20372;-73
2022/08/08 01:25:35;;;;;;;7.85;4.40;;;18.10;99.90;;;;;;5114519;27;20467;-72
2022/08/08 01:28:33;;;;;;;7.05;4.85;;;18.10;99.90;;;;;;5114328;28;20483;-74
2022/08/08 01:31:36;;;;;;;8.48;5.60;;;18.10;99.90;;;;;;5114626;28;20115;-73
2022/08/08 01:34:26;;;;;;;7.80;5.10;;;18.10;99.90;;;;;;5114497;28;20545;-74
2022/08/08 01:37:29;;;;;;;6.50;4.90;;;18.10;99.90;;;;;;5112909;28;20024;-74
2022/08/08 01:40:28;;;;;;;7.13;4.80;;;18.10;99.90;;;;;;5112907;28;20038;-74
2022/08/08 01:42:57;;;;;;;5.63;4.15;;;18.10;99.90;;;;;;5114033;28;20036;-73
2022/08/08 01:45:40;;;;;;;6.38;4.57;;;18.10;99.90;;;;;;5112689;28;20019;-74
2022/08/08 01:48:43;;;;;;;6.10;4.20;;;18.10;99.90;;;;;;5113886;28;20441;-73
2022/08/08 01:51:23;;;;;;;9.88;4.80;;;18.10;99.90;;;;;;5113833;27;20057;-73
2022/08/08 01:54:11;;;;;;;7.95;4.65;;;18.00;99.90;;;;;;5112473;28;20027;-73
2022/08/08 01:57:07;;;;;;;6.55;4.43;;;18.00;99.90;;;;;;5112239;28;20142;-73
2022/08/08 02:00:05;;;;;;;6.18;4.40;;;18.00;99.90;;;;;;5112706;28;20035;-75
2022/08/08 02:02:47;;;;;;;;;;;18.00;99.90;;;;;;5114193;28;20031;-71
2022/08/08 02:05:30;;;;;;;6.30;4.57;;;18.00;99.90;;;;;;5113908;28;19922;-76
2022/08/08 02:08:26;;;;;;;6.30;4.32;;;18.00;99.90;;;;;;5113563;28;20028;-74
2022/08/08 02:11:16;;;;;;;6.45;4.55;;;18.00;99.90;;;;;;5112435;28;20547;-74
2022/08/08 02:13:54;;;;;;;5.93;4.10;;;17.90;99.90;;;;;;5113657;28;20034;-75
2022/08/08 02:16:28;;;;;;;6.18;4.22;;;18.00;99.90;;;;;;5112274;28;20451;-73
2022/08/08 02:19:05;;;;;;;6.32;4.45;;;18.00;99.90;;;;;;5113473;28;20371;-74
2022/08/08 02:25:12;;;;;;;6.22;4.32;;;18.00;99.90;;;;;;5092510;28;20403;-73
2022/08/08 02:27:45;;;;;;;7.05;4.93;;;18.00;99.90;;;;;;5111914;28;20492;-74
2022/08/08 02:30:19;;;;;;;7.00;4.90;;;17.90;99.90;;;;;;5111943;28;20028;-74
2022/08/08 02:33:06;;;;;;;7.00;4.68;;;18.00;99.90;;;;;;5113379;28;20034;-75
2022/08/08 02:35:54;;;;;;;6.65;4.82;;;18.00;99.90;;;;;;5111864;28;20031;-74
2022/08/08 02:38:54;;;;;;;6.78;4.20;;;18.00;99.90;;;;;;5111695;28;20031;-74
2022/08/08 02:41:49;;;;;;;6.93;4.82;;;18.00;99.90;;;;;;5111985;28;20050;-74
2022/08/08 02:44:33;;;;;;;6.72;4.53;;;18.00;99.90;;;;;;5111479;28;20063;-73
2022/08/08 02:47:18;;;;;;;7.63;5.20;;;18.10;99.90;;;;;;5113186;27;20467;-74
2022/08/08 02:50:05;;;;;;;6.90;4.65;;;18.00;99.90;;;;;;5113120;28;20020;-74
2022/08/08 02:53:01;;;;;;;6.60;4.60;;;18.00;99.90;;;;;;5113617;28;20024;-73
2022/08/08 02:55:55;;;;;;;6.38;4.60;;;18.00;99.90;;;;;;5112740;28;20517;-75
2022/08/08 02:58:51;;;;;;;6.10;4.43;;;18.00;99.90;;;;;;5111434;28;20020;-73
2022/08/08 03:01:16;;;;;;;6.28;4.25;;;18.00;99.90;;;;;;5111290;28;20073;-74
2022/08/08 03:03:51;;;;;;;5.93;4.17;;;18.00;99.90;;;;;;5111052;28;20484;-72
2022/08/08 03:06:32;;;;;;;6.05;4.43;;;18.00;99.90;;;;;;5111068;28;20023;-74
2022/08/08 03:09:19;;;;;;;6.88;4.50;;;18.00;99.90;;;;;;5111062;28;20123;-74
2022/08/08 03:12:16;;;;;;;6.80;4.80;;;18.00;99.90;;;;;;5110905;28;20035;-73
2022/08/08 03:15:07;;;;;;;7.32;4.32;;;18.00;99.90;;;;;;5111095;28;20032;-74
2022/08/08 03:17:47;;;;;;;5.95;4.82;;;18.00;99.90;;;;;;5112968;28;20498;-73
2022/08/08 03:20:14;;;;;;;5.85;4.20;;;18.00;99.90;;;;;;5094819;28;20436;-72
2022/08/08 03:22:51;;;;;;;5.28;3.78;;;18.00;99.90;;;;;;5110304;28;20114;-73
2022/08/08 03:25:19;;;;;;;6.15;4.15;;;18.10;99.90;;;;;;5110412;28;20031;-73
2022/08/08 03:28:03;;;;;;;5.68;3.85;;;18.10;99.90;;;;;;5110314;28;20059;-73
2022/08/08 03:30:29;;;;;;;5.90;4.20;;;18.10;99.90;;;;;;5110641;28;20023;-74
2022/08/08 03:35:40;;;;;;;6.47;4.03;;;18.00;99.90;;;;;;5112403;28;20065;-75
2022/08/08 03:38:07;;;;;;;6.15;3.67;;;18.00;99.90;;;;;;5110592;28;20059;-73
2022/08/08 03:40:33;;;;;;;;;;;18.10;99.90;;;;;;5111947;27;20039;-73
2022/08/08 03:42:59;;;;;;;6.75;4.05;;;18.00;99.90;;;;;;5111483;28;19998;-73
2022/08/08 03:45:28;;;;;;;7.18;4.35;;;18.00;99.90;;;;;;5110633;28;20543;-72
2022/08/08 03:47:55;;;;;;;7.05;5.07;;;18.00;99.90;;;;;;5093450;28;20085;-74
2022/08/08 03:50:22;;;;;;;6.30;4.32;;;18.10;99.90;;;;;;5110403;28;20028;-74
2022/08/08 03:52:47;;;;;;;6.03;3.90;;;17.90;99.90;;;;;;5111896;28;20027;-73
2022/08/08 03:55:16;;;;;;;6.47;4.37;;;18.10;99.90;;;;;;5111367;28;20387;-74
2022/08/08 03:57:49;;;;;;;6.07;3.97;;;17.90;99.90;;;;;;5111655;28;20356;-73
2022/08/08 04:00:17;;;;;;;6.07;4.15;;;18.10;99.90;;;;;;5110334;28;20028;-74
2022/08/08 04:02:51;;;;;;;6.32;4.55;;;18.10;99.90;;;;;;5111281;28;20027;-74
2022/08/08 04:05:17;;;;;;;6.38;4.35;;;18.10;99.90;;;;;;5109943;28;20043;-73
2022/08/08 04:07:43;;;;;;;7.63;4.40;;;18.10;99.90;;;;;;5111199;28;20391;-73
2022/08/08 04:10:09;;;;;;;8.90;4.43;;;18.10;99.90;;;;;;5111595;28;20207;-74
2022/08/08 04:12:35;;;;;;;7.87;5.00;;;18.10;99.90;;;;;;5109939;28;20024;-73
2022/08/08 04:15:01;;;;;;;7.55;4.85;;;18.10;99.90;;;;;;5109943;28;20280;-73
2022/08/08 04:17:27;;;;;;;7.07;5.10;;;18.10;99.90;;;;;;5111061;28;20039;-74
2022/08/08 04:19:55;;;;;;;8.93;4.97;;;18.10;99.90;;;;;;5109902;28;20138;-74
2022/08/08 04:22:21;;;;;;;8.30;5.60;;;18.10;99.90;;;;;;5109901;28;20031;-74
2022/08/08 04:24:46;;;;;;;8.75;5.38;;;18.20;99.90;;;;;;5111335;28;20080;-74
2022/08/08 04:27:12;;;;;;;7.37;5.03;;;18.10;99.90;;;;;;5110969;28;20039;-73
2022/08/08 04:29:38;;;;;;;8.77;5.87;;;18.10;99.90;;;;;;5109678;28;20031;-74
2022/08/08 04:32:05;;;;;;;8.70;5.80;;;18.10;99.90;;;;;;5111111;28;20099;-74
2022/08/08 04:34:31;;;;;;;7.82;5.18;;;18.10;99.90;;;;;;5109611;28;20082;-74
2022/08/08 04:36:56;;;;;;;7.43;5.33;;;18.10;99.90;;;;;;5111212;28;20059;-74
2022/08/08 04:39:22;;;;;;;7.93;5.90;;;18.10;99.90;;;;;;5109830;28;20038;-75
2022/08/08 04:41:47;;;;;;;8.47;5.40;;;18.00;99.90;;;;;;5110955;28;20383;-74
2022/08/08 04:44:13;;;;;;;8.70;5.60;;;18.10;99.90;;;;;;5110780;28;20040;-75
2022/08/08 04:46:39;;;;;;;8.90;6.20;;;18.10;99.90;;;;;;5111030;28;20023;-74
2022/08/08 04:49:04;;;;;;;9.20;5.40;;;18.10;99.90;;;;;;5111119;28;20032;-74
2022/08/08 04:51:30;;;;;;;9.50;5.50;;;18.10;99.90;;;;;;5112522;28;20031;-73
2022/08/08 04:53:56;;;;;;;8.27;5.30;;;18.10;99.90;;;;;;5113611;28;20032;-73
2022/08/08 04:56:22;;;;;;;8.57;6.13;;;18.10;99.90;;;;;;5113562;28;20060;-75
2022/08/08 04:58:48;;;;;;;8.82;5.95;;;18.10;99.90;;;;;;5113421;28;20028;-72
2022/08/08 05:01:13;;;;;;;9.67;6.27;;;18.10;99.90;;;;;;5113762;28;20111;-73
2022/08/08 05:03:39;;;;;;;12.63;6.10;;;18.20;99.90;;;;;;5114706;28;20035;-73
2022/08/08 05:06:05;;;;;;;9.27;6.20;;;18.20;99.90;;;;;;5113346;28;20467;-74
2022/08/08 05:08:30;;;;;;;9.80;6.23;;;18.20;99.90;;;;;;5114662;28;20031;-73
2022/08/08 05:10:56;;;;;;;9.10;6.00;;;18.10;99.90;;;;;;5113405;28;20032;-74
2022/08/08 05:13:22;;;;;;;8.87;5.80;;;18.20;99.90;;;;;;5113406;28;20024;-74
2022/08/08 05:15:47;;;;;;;9.60;6.13;;;18.20;99.90;;;;;;5114708;28;20429;-74
2022/08/08 05:18:13;;;;;;;9.30;5.90;;;18.20;99.90;;;;;;5113116;28;20027;-75
2022/08/08 05:20:39;;;;;;;9.43;6.03;;;18.20;99.90;;;;;;5113053;28;20036;-74
2022/08/08 05:23:04;;;;;;;9.53;6.00;;;18.20;99.90;;;;;;5114364;28;20076;-73
2022/08/08 05:25:30;;;;;;;8.87;5.90;;;18.30;99.90;;;;;;5113094;28;20327;-74
2022/08/08 05:27:56;;;;;;;7.53;5.43;;;18.30;99.90;;;;;;5114534;28;20028;-75
2022/08/08 05:30:21;;;;;;;8.77;5.60;;;18.30;99.90;;;;;;5114335;28;20529;-74
2022/08/08 05:32:47;;;;;;;7.93;5.77;;;18.30;99.90;;;;;;5113094;28;20119;-74
2022/08/08 05:35:13;;;;;;;8.47;6.17;;;18.30;99.90;;;;;;5114549;28;20216;-73
2022/08/08 05:37:46;;;;;;;8.15;5.45;;;18.40;99.90;;;;;;5112785;28;20020;-74
2022/08/08 05:40:13;;;;;;;7.43;5.47;;;18.40;99.90;;;;;;5114627;28;20039;-73
2022/08/08 05:42:42;;;;;;;9.32;5.85;;;18.40;99.90;;;;;;5112594;28;20027;-74
2022/08/08 05:45:09;;;;;;;7.53;5.07;;;18.40;99.90;;;;;;5114307;28;20036;-73
2022/08/08 05:47:36;;;;;;;;;;;18.40;99.90;;;;;;5113206;28;20134;-74
2022/08/08 05:50:06;;;;;;;8.93;5.93;;;18.50;99.90;;;;;;5129874;27;19911;-72
2022/08/08 05:52:36;;;;;;;8.50;5.28;;;18.50;99.90;;;;;;5112558;28;20024;-74
2022/08/08 05:55:10;;;;;;;7.30;4.70;;;18.50;99.90;;;;;;5111675;28;20467;-74
2022/08/08 05:57:37;;;;;;;8.18;5.45;;;18.40;99.90;;;;;;5112799;28;20498;-75
2022/08/08 06:00:06;;;;;;;8.57;5.72;;;18.60;99.90;;;;;;5111401;28;20038;-75
2022/08/08 06:05:19;;;;;;;9.15;5.60;;;18.50;99.90;;;;;;5112930;28;20096;-74
2022/08/08 06:07:47;;;;;;;7.53;5.53;;;18.50;99.90;;;;;;5111050;28;20464;-75
2022/08/08 06:10:13;;;;;;;11.30;6.50;;;18.60;99.90;;;;;;5110999;28;20155;-75
2022/08/08 06:12:41;;;;;;;8.23;5.82;;;18.60;99.90;;;;;;5112356;28;20020;-74
2022/08/08 06:15:08;;;;;;;10.68;6.30;;;18.70;99.90;;;;;;5112575;28;20040;-74
2022/08/08 06:17:35;;;;;;;10.38;6.18;;;18.60;99.90;;;;;;5110888;28;20024;-73
2022/08/08 06:20:04;;;;;;;9.05;5.90;;;18.50;99.90;;;;;;5112335;28;20585;-74
2022/08/08 06:22:30;;;;;;;8.52;6.07;;;18.50;99.90;;;;;;5112109;28;20028;-74
2022/08/08 06:24:56;;;;;;;9.63;5.67;;;18.50;99.90;;;;;;5112730;28;20043;-73
2022/08/08 06:27:36;;;;;;;8.83;5.93;;;18.60;99.90;;;;;;5110740;28;20027;-73
2022/08/08 06:30:06;;;;;;;8.38;5.63;;;18.60;99.90;;;;;;5112381;28;20027;-74
2022/08/08 06:32:43;;;;;;;7.88;5.95;;;18.70;99.90;;;;;;5110610;28;20103;-74
2022/08/08 06:35:12;;;;;;;11.07;7.07;;;18.70;99.90;;;;;;5110853;28;20040;-73
2022/08/08 06:37:43;;;;;;;10.43;7.55;;;18.70;99.90;;;;;;5111939;28;20049;-74
2022/08/08 06:40:13;;;;;;;10.60;7.82;;;18.70;99.90;;;;;;5110683;28;20539;-75
2022/08/08 06:42:44;;;;;;;9.68;7.63;;;18.80;99.90;;;;;;5110408;28;20031;-76
2022/08/08 06:45:10;;;;;;;13.13;8.00;;;18.80;99.90;;;;;;5112106;28;20040;-74
2022/08/08 06:47:36;;;;;;;11.48;8.00;;;18.90;99.90;;;;;;5110813;28;20432;-74
2022/08/08 06:50:02;;;;;;;8.10;6.35;;;18.80;99.90;;;;;;5110660;28;20609;-74
2022/08/08 06:52:28;;;;;;;9.67;6.23;;;18.80;99.90;;;;;;5110133;28;20106;-74
2022/08/08 06:54:57;;;;;;;9.17;5.70;;;18.90;99.90;;;;;;5067007;28;1266692;-74
2022/08/08 06:57:23;;;;;;;9.77;5.88;;;18.80;99.90;;;;;;5112589;28;20475;-73
2022/08/08 06:59:50;;;;;;;7.60;5.45;;;18.90;99.90;;;;;;5112706;28;20012;-73
2022/08/08 07:02:24;;;;;;;16.88;5.53;;;18.90;99.90;;;;;;5111001;28;20058;-74
2022/08/08 07:05:16;;;;;;;12.20;6.10;;;18.90;99.90;;;;;;5112614;28;20023;-75
2022/08/08 07:07:50;;;;;;;9.35;6.20;;;18.90;99.90;;;;;;5106294;28;20502;-74
2022/08/08 07:10:20;;;;;;;8.00;6.05;;;18.90;99.90;;;;;;5112259;28;20051;-74
2022/08/08 07:12:54;;;;;;;11.35;6.55;;;18.90;99.90;;;;;;5110722;28;20029;-74
2022/08/08 07:15:40;;;;;;;9.77;6.45;;;18.90;99.90;;;;;;5111789;28;20035;-74
2022/08/08 07:18:08;;;;;;;7.43;5.53;;;18.90;99.90;;;;;;5112368;28;20229;-74
2022/08/08 07:20:40;;;;;;;7.95;5.18;;;19.00;99.90;;;;;;5112495;28;20035;-75
2022/08/08 07:23:14;;;;;;;8.70;5.78;;;19.00;99.90;;;;;;5111816;28;20027;-75
2022/08/08 07:25:42;;;;;;;6.55;4.72;;;19.00;99.90;;;;;;5112797;28;20476;-75
2022/08/08 07:28:11;;;;;;;7.05;5.00;;;19.00;99.90;;;;;;5110434;28;20031;-75
2022/08/08 07:30:38;;;;;;;7.13;5.07;;;19.10;99.90;;;;;;5108194;28;20371;-68
2022/08/08 07:33:04;;;;;;;8.57;5.47;;;19.20;99.90;;;;;;5116977;27;20027;-68
2022/08/08 07:35:31;;;;;;;7.50;5.18;;;19.30;99.90;;;;;;5105031;28;20024;-68
2022/08/08 07:37:57;;;;;;;6.65;4.45;;;19.40;99.90;;;;;;5099716;27;20032;-68
2022/08/08 07:40:28;;;;;;;7.63;4.68;;;19.50;99.90;;;;;;5103741;28;20123;-67
2022/08/08 07:42:54;;;;;;;7.20;4.50;;;19.60;99.90;;;;;;5106095;28;20414;-67
2022/08/08 07:45:20;;;;;;;6.15;4.38;;;19.70;99.90;;;;;;5110437;28;20035;-66
2022/08/08 07:47:46;;;;;;;6.45;4.80;;;19.90;99.90;;;;;;5101244;28;20086;-68
2022/08/08 07:50:12;;;;;;;6.35;4.50;;;20.00;99.90;;;;;;5107547;28;20057;-67
2022/08/08 07:52:42;;;;;;;5.53;4.20;;;20.10;99.90;;;;;;5104154;28;20338;-68
2022/08/08 07:55:22;;;;;;;6.03;4.35;;;20.10;99.90;;;;;;5102522;28;20039;-68
2022/08/08 07:57:48;;;;;;;7.10;4.70;;;20.20;99.90;;;;;;5107619;28;20073;-67
2022/08/08 08:00:15;;;;;;;5.83;4.17;;;20.10;99.90;;;;;;5106541;28;20043;-67
2022/08/08 08:02:46;;;;;;;8.07;4.60;;;20.20;99.90;;;;;;5110397;28;20028;-67
2022/08/08 08:05:22;;;;;;;5.82;3.95;;;20.30;99.90;;;;;;5109571;28;20450;-67
2022/08/08 08:07:52;;;;;;;6.47;4.57;;;20.30;99.90;;;;;;5109192;28;20054;-67
2022/08/08 08:10:19;;;;;;;7.32;4.72;;;20.30;99.90;;;;;;5107949;28;20034;-68
2022/08/08 08:13:19;;;;;;;6.22;4.40;;;20.30;99.90;;;;;;5108536;28;20026;-67
2022/08/08 08:15:49;;;;;;;6.70;4.25;;;20.40;99.90;;;;;;5093146;28;20031;-69
2022/08/08 08:18:17;;;;;;;7.50;4.47;;;20.40;99.90;;;;;;5103331;28;20467;-69
2022/08/08 08:20:44;;;;;;;8.13;4.68;;;20.40;99.90;;;;;;5106320;28;20051;-68
2022/08/08 08:23:09;;;;;;;;;;;20.40;99.90;;;;;;5105191;28;20406;-67
2022/08/08 08:25:35;;;;;;;5.95;3.92;;;20.40;99.90;;;;;;5108396;28;19957;-68
2022/08/08 08:28:00;;;;;;;5.90;4.30;;;20.40;99.90;;;;;;5105348;28;20196;-67
2022/08/08 08:30:26;;;;;;;6.20;4.50;;;20.40;99.90;;;;;;5101074;28;20035;-67
2022/08/08 08:32:52;;;;;;;5.53;4.10;;;20.40;99.90;;;;;;5109442;28;20046;-67
2022/08/08 08:35:18;;;;;;;6.85;4.20;;;20.50;99.90;;;;;;5092879;28;20032;-67
2022/08/08 08:37:44;;;;;;;5.57;4.22;;;20.50;99.90;;;;;;5108493;28;20055;-68
2022/08/08 08:40:12;;;;;;;6.00;4.03;;;20.50;99.90;;;;;;5104611;28;20564;-68
2022/08/08 08:42:39;;;;;;;5.88;4.30;;;20.50;99.90;;;;;;5107799;28;20608;-68
2022/08/08 08:45:05;;;;;;;;;;;20.50;99.90;;;;;;5104854;28;20031;-67
2022/08/08 08:47:31;;;;;;;5.63;4.10;;;20.50;99.90;;;;;;5096798;28;19951;-67
2022/08/08 08:49:57;;;;;;;6.93;4.38;;;20.50;99.90;;;;;;5109464;28;20494;-68
2022/08/08 08:52:23;;;;;;;6.87;4.73;;;20.50;99.90;;;;;;5104731;28;20016;-67
2022/08/08 08:54:50;;;;;;;7.97;4.10;;;20.40;99.90;;;;;;5105028;28;20054;-68
2022/08/08 08:57:18;;;;;;;5.65;4.15;;;20.40;99.90;;;;;;5109057;28;20027;-66
2022/08/08 08:59:48;;;;;;;6.07;4.40;;;20.40;99.90;;;;;;5109316;28;20028;-66
2022/08/08 09:02:23;;;;;;;5.70;4.20;;;20.40;99.90;;;;;;5106548;28;20087;-68
2022/08/08 09:04:55;;;;;;;7.45;4.25;;;20.40;99.90;;;;;;5108592;28;20379;-68
2022/08/08 09:07:23;;;;;;;5.68;4.20;;;20.50;99.90;;;;;;5105755;28;20135;-69
2022/08/08 09:09:53;;;;;;;6.75;4.07;;;20.50;99.90;;;;;;5109041;28;20475;-69
2022/08/08 09:12:21;;;;;;;7.13;4.20;;;20.60;99.90;;;;;;5103604;28;20024;-67
2022/08/08 09:14:57;;;;;;;7.05;4.20;;;20.60;99.90;;;;;;5094329;28;20115;-67
2022/08/08 09:17:23;;;;;;;5.20;3.70;;;20.70;99.90;;;;;;5108094;28;20418;-67
2022/08/08 09:19:52;;;;;;;5.93;4.50;;;20.70;99.90;;;;;;5110206;28;20052;-68
2022/08/08 09:22:21;;;;;;;6.22;4.53;;;20.70;99.90;;;;;;5107803;28;20036;-67
2022/08/08 09:24:48;;;;;;;5.80;4.38;;;20.80;99.90;;;;;;5092422;28;20085;-69
2022/08/08 09:27:15;;;;;;;6.90;4.90;;;20.80;99.90;;;;;;5109150;28;20507;-67
2022/08/08 09:30:01;;;;;;;7.95;5.57;;;20.90;99.90;;;;;;5107665;28;20031;-67
2022/08/08 09:32:38;;;;;;;18.23;9.48;;;20.80;99.90;;;;;;5106595;28;20038;-67
2022/08/08 09:35:09;;;;;;;6.75;5.10;;;20.90;99.90;;;;;;5103380;28;20472;-69
2022/08/08 09:37:46;;;;;;;6.70;4.70;;;20.90;99.90;;;;;;5109137;28;20028;-68
2022/08/08 09:40:23;;;;;;;8.35;5.35;;;20.90;99.90;;;;;;5107058;28;20032;-68
2022/08/08 09:43:28;;;;;;;7.63;5.53;;;20.90;99.90;;;;;;5109020;28;20057;-68
2022/08/08 09:46:02;;;;;;;7.65;5.47;;;21.00;99.90;;;;;;5097629;28;20035;-67
2022/08/08 09:48:33;;;;;;;9.73;6.78;;;21.00;99.90;;;;;;5100195;28;20027;-67
2022/08/08 09:51:01;;;;;;;9.88;6.85;;;21.10;99.90;;;;;;5102280;28;20024;-68
2022/08/08 09:53:48;;;;;;;10.45;7.10;;;21.00;99.90;;;;;;5112019;28;20046;-68
2022/08/08 09:56:16;;;;;;;8.90;6.70;;;21.00;99.90;;;;;;5112238;28;20425;-67
2022/08/08 09:58:52;;;;;;;8.52;6.50;;;21.00;99.90;;;;;;5106675;28;20028;-70
2022/08/08 10:01:20;;;;;;;10.40;7.35;;;21.00;99.90;;;;;;5106778;28;20035;-67
2022/08/08 10:03:49;;;;;;;10.88;6.60;;;21.00;99.90;;;;;;5107289;28;20126;-70
2022/08/08 10:06:19;;;;;;;8.48;6.70;;;21.00;99.90;;;;;;5109127;28;20475;-70
2022/08/08 10:08:47;;;;;;;9.77;6.85;;;21.00;99.90;;;;;;5108794;28;20386;-69
2022/08/08 10:11:17;;;;;;;9.75;6.72;;;20.90;99.90;;;;;;5109872;28;20518;-72
2022/08/08 10:14:12;;;;;;;9.02;6.70;;;21.00;99.90;;;;;;5111601;28;20026;-73
2022/08/08 10:16:42;;;;;;;9.23;6.60;;;21.00;99.90;;;;;;5089222;28;20043;-72
2022/08/08 10:19:12;;;;;;;9.63;7.55;;;20.90;99.90;;;;;;5107591;28;20039;-72
2022/08/08 10:21:37;;;;;;;9.13;6.55;;;20.90;99.90;;;;;;5108891;28;20466;-71
2022/08/08 10:24:06;;;;;;;9.80;7.17;;;21.00;99.90;;;;;;5096519;28;20038;-73
2022/08/08 10:26:45;;;;;;;9.80;6.82;;;21.00;99.90;;;;;;5111262;28;20089;-74
2022/08/08 10:29:12;;;;;;;13.30;6.43;;;21.00;99.90;;;;;;5112379;28;20038;-73
2022/08/08 10:34:26;;;;;;;9.80;7.00;;;21.00;99.90;;;;;;5102295;28;20062;-72
2022/08/08 10:36:53;;;;;;;8.90;6.43;;;21.50;99.90;;;;;;5109736;28;20032;-74
2022/08/08 10:39:21;;;;;;;9.68;7.05;;;21.10;99.90;;;;;;5127419;27;20036;-72
2022/08/08 10:42:04;;;;;;;11.98;6.93;;;21.10;99.90;;;;;;5107034;28;20118;-72
2022/08/08 10:44:38;;;;;;;10.00;7.13;;;21.20;99.90;;;;;;5106880;28;20031;-75
2022/08/08 10:47:12;;;;;;;9.85;6.13;;;21.20;99.90;;;;;;5106630;28;20078;-73
2022/08/08 10:49:48;;;;;;;7.53;5.72;;;21.30;99.90;;;;;;5097955;28;20357;-74
2022/08/08 10:52:24;;;;;;;7.50;5.78;;;21.20;99.90;;;;;;5094853;28;20027;-67
2022/08/08 10:54:57;;;;;;;8.57;5.43;;;21.20;99.90;;;;;;5091607;28;20071;-73
2022/08/08 10:57:23;;;;;;;7.70;5.28;;;21.20;99.90;;;;;;5091319;28;20028;-75
2022/08/08 10:59:52;;;;;;;8.70;6.53;;;21.30;99.90;;;;;;5102544;28;20114;-74
2022/08/08 11:02:26;;;;;;;9.00;5.63;;;21.30;99.90;;;;;;5109230;28;20047;-74
2022/08/08 11:04:55;;;;;;;8.55;5.68;;;21.30;99.90;;;;;;5111019;28;20423;-72
2022/08/08 11:07:29;;;;;;;7.95;5.88;;;21.30;99.90;;;;;;5099267;28;20028;-72
2022/08/08 11:09:59;;;;;;;8.00;5.85;;;21.30;99.90;;;;;;5102898;28;20489;-74
2022/08/08 11:12:24;;;;;;;9.00;6.15;;;21.30;99.90;;;;;;5105655;28;20028;-74
2022/08/08 11:15:00;;;;;;;8.63;5.70;;;21.40;99.90;;;;;;5106242;28;20043;-66
2022/08/08 11:17:31;;;;;;;7.63;5.80;;;21.50;99.90;;;;;;5102925;28;20107;-65
2022/08/08 11:19:57;;;;;;;8.68;5.85;;;21.60;99.90;;;;;;5107145;28;20096;-65
2022/08/08 11:22:25;;;;;;;7.80;6.10;;;21.60;99.90;;;;;;5107038;28;20092;-67
2022/08/08 11:24:53;;;;;;;8.70;6.25;;;21.80;99.90;;;;;;5108253;28;20483;-66
2022/08/08 11:27:24;;;;;;;8.50;6.00;;;21.80;99.90;;;;;;5109914;28;20077;-66
2022/08/08 11:29:54;;;;;;;8.30;6.20;;;21.80;99.90;;;;;;5107330;28;20039;-66
2022/08/08 11:32:24;;;;;;;12.32;6.97;;;21.80;99.90;;;;;;5103990;28;20030;-66
2022/08/08 11:34:55;;;;;;;7.47;5.65;;;21.70;99.90;;;;;;5102645;28;20036;-65
2022/08/08 11:37:22;;;;;;;7.65;5.93;;;21.80;99.90;;;;;;5111258;28;20019;-65
2022/08/08 11:39:49;;;;;;;9.63;7.00;;;21.80;99.90;;;;;;5091726;28;20050;-66
2022/08/08 11:42:16;;;;;;;8.93;5.97;;;21.80;99.90;;;;;;5093339;28;20039;-67
2022/08/08 11:44:44;;;;;;;8.52;5.90;;;21.70;99.90;;;;;;5097685;28;20028;-67
2022/08/08 11:47:10;;;;;;;8.07;5.80;;;21.80;99.90;;;;;;5103999;28;20015;-65
2022/08/08 11:49:37;;;;;;;9.18;6.55;;;21.80;99.90;;;;;;5111648;28;20019;-66
2022/08/08 11:52:05;;;;;;;8.55;6.18;;;21.80;99.90;;;;;;5107802;28;20078;-66
2022/08/08 11:54:35;;;;;;;8.07;6.47;;;22.10;99.90;;;;;;5100305;28;20420;-66
2022/08/08 11:57:20;;;;;;;8.48;6.53;;;22.30;99.90;;;;;;5100787;28;20376;-66
2022/08/08 11:59:52;;;;;;;9.43;5.93;;;22.40;99.90;;;;;;5099481;28;20032;-69
2022/08/08 12:02:18;;;;;;;7.97;6.25;;;22.50;99.90;;;;;;5099512;27;20376;-66
2022/08/08 12:04:44;;;;;;;8.30;6.18;;;22.60;99.90;;;;;;5106587;28;20461;-66
2022/08/08 12:07:10;;;;;;;;;;;22.70;99.90;;;;;;5105190;28;20058;-68
2022/08/08 12:09:36;;;;;;;9.48;6.30;;;22.70;99.90;;;;;;5104311;28;20385;-66
2022/08/08 12:12:01;;;;;;;8.20;6.10;;;22.70;99.90;;;;;;5105085;28;20410;-67
2022/08/08 12:14:27;;;;;;;9.00;6.03;;;22.50;99.90;;;;;;5101696;27;20028;-67
2022/08/08 12:16:54;;;;;;;9.57;6.23;;;22.50;99.90;;;;;;5101933;28;20627;-67
2022/08/08 12:19:21;;;;;;;8.32;6.38;;;22.40;99.90;;;;;;5106310;28;20058;-67
2022/08/08 12:21:47;;;;;;;8.60;6.53;;;22.40;99.90;;;;;;5104458;28;20047;-68
2022/08/08 12:24:14;;;;;;;8.75;6.47;;;22.40;99.90;;;;;;5107721;27;20433;-70
2022/08/08 12:26:43;;;;;;;8.75;6.28;;;22.40;99.90;;;;;;5106598;28;20027;-67
2022/08/08 12:29:21;;;;;;;8.48;6.53;;;22.40;99.90;;;;;;5103182;28;20031;-67
2022/08/08 12:31:59;;;;;;;10.68;6.18;;;22.40;99.90;;;;;;5109951;27;20038;-70
2022/08/08 12:34:49;;;;;;;9.77;6.43;;;22.50;99.90;;;;;;5104348;28;20050;-66
2022/08/08 12:37:21;;;;;;;9.05;6.40;;;22.60;99.90;;;;;;5105534;28;20032;-67
2022/08/08 12:39:48;;;;;;;9.65;5.90;;;22.70;99.90;;;;;;5108754;28;20085;-66
2022/08/08 12:42:14;;;;;;;8.75;6.60;;;22.90;99.90;;;;;;5104509;28;20068;-67
2022/08/08 12:44:41;;;;;;;8.88;6.03;;;22.80;99.90;;;;;;5099859;28;20035;-68
2022/08/08 12:47:08;;;;;;;8.15;6.15;;;22.70;99.90;;;;;;5099967;28;20032;-70
2022/08/08 12:49:35;;;;;;;7.90;5.18;;;22.40;99.90;;;;;;5106247;28;20031;-69
2022/08/08 12:52:01;;;;;;;7.47;5.13;;;22.30;99.90;;;;;;5106004;28;20028;-64
2022/08/08 12:54:31;;;;;;;7.72;5.40;;;22.30;99.90;;;;;;5103664;28;20054;-66
2022/08/08 12:56:58;;;;;;;7.65;5.47;;;22.30;99.90;;;;;;5095466;28;20030;-66
2022/08/08 12:59:50;;;;;;;6.97;5.40;;;22.30;99.90;;;;;;5106689;28;20122;-66
2022/08/08 13:02:24;;;;;;;7.25;5.55;;;22.30;99.90;;;;;;5108271;28;20472;-67
2022/08/08 13:04:51;;;;;;;7.45;5.40;;;22.40;99.90;;;;;;5108586;28;20028;-67
2022/08/08 13:07:17;;;;;;;7.85;5.47;;;22.40;99.90;;;;;;5096934;28;20081;-69
2022/08/08 13:09:51;;;;;;;7.03;5.27;;;22.40;99.90;;;;;;5098287;28;20437;-68
2022/08/08 13:12:22;;;;;;;7.28;5.25;;;22.60;99.90;;;;;;5103798;28;20019;-68
2022/08/08 13:14:50;;;;;;;8.15;5.82;;;22.80;99.90;;;;;;5105482;28;20119;-67
2022/08/08 13:17:21;;;;;;;7.20;5.03;;;22.90;99.90;;;;;;5097830;28;20493;-70
2022/08/08 13:19:48;;;;;;;8.45;4.72;;;22.90;99.90;;;;;;5110794;28;20032;-67
2022/08/08 13:22:17;;;;;;;8.00;5.68;;;22.90;99.90;;;;;;5100434;28;20072;-69
2022/08/08 13:24:43;;;;;;;7.20;5.43;;;22.80;99.90;;;;;;5103515;28;20042;-70
2022/08/08 13:27:11;;;;;;;7.35;5.53;;;22.80;99.90;;;;;;5104114;28;20466;-68
2022/08/08 13:29:51;;;;;;;6.82;5.05;;;22.60;99.90;;;;;;5102337;28;20332;-68